createdAt,value
2017-10-17T00:00:56.077Z,12.95
2017-10-17T00:03:22.386Z,13.13
2017-10-17T00:05:48.706Z,12.50
2017-10-17T00:08:15.011Z,12.30
2017-10-17T00:10:41.355Z,13.40
2017-10-17T00:13:08.455Z,12.93
2017-10-17T00:15:34.763Z,11.90
2017-10-17T00:18:01.099Z,12.55
2017-10-17T00:20:27.414Z,13.02
2017-10-17T00:22:53.738Z,13.30
2017-10-17T00:25:20.066Z,12.45
2017-10-17T00:27:46.436Z,13.45
2017-10-17T00:30:12.750Z,12.05
2017-10-17T00:32:40.610Z,12.63
2017-10-17T00:35:15.858Z,12.10
2017-10-17T00:37:42.154Z,12.40
2017-10-17T00:40:08.482Z,12.35
2017-10-17T00:42:34.803Z,10.98
2017-10-17T00:45:01.106Z,12.80
2017-10-17T00:47:27.451Z,12.40
2017-10-17T00:49:53.754Z,13.35
2017-10-17T00:52:20.034Z,11.45
2017-10-17T00:54:46.374Z,10.68
2017-10-17T00:57:12.682Z,12.10
2017-10-17T00:59:38.987Z,12.20
2017-10-17T01:02:05.334Z,12.02
2017-10-17T01:04:31.662Z,11.45
2017-10-17T01:06:57.979Z,11.80
2017-10-17T01:09:25.061Z,11.32
2017-10-17T01:11:51.366Z,12.75
2017-10-17T01:14:18.777Z,10.50
2017-10-17T01:16:45.091Z,11.45
2017-10-17T01:19:12.150Z,11.73
2017-10-17T01:21:38.482Z,11.25
2017-10-17T01:24:08.735Z,12.80
2017-10-17T01:26:35.046Z,12.65
2017-10-17T01:29:05.966Z,11.55
2017-10-17T01:31:32.282Z,11.05
2017-10-17T01:33:58.559Z,12.55
2017-10-17T01:36:24.891Z,11.20
2017-10-17T01:38:52.134Z,12.70
2017-10-17T01:41:18.426Z,10.43
2017-10-17T01:43:46.635Z,12.55
2017-10-17T01:46:15.730Z,10.45
2017-10-17T01:48:44.458Z,10.70
2017-10-17T01:51:21.582Z,11.02
2017-10-17T01:53:57.762Z,10.75
2017-10-17T01:56:24.843Z,10.07
2017-10-17T01:58:51.130Z,12.02
2017-10-17T02:01:17.482Z,11.30
2017-10-17T02:03:43.806Z,12.25
2017-10-17T02:06:10.838Z,11.73
2017-10-17T02:08:37.167Z,10.40
2017-10-17T02:11:03.450Z,12.23
2017-10-17T02:13:29.758Z,11.85
2017-10-17T02:15:56.163Z,11.93
2017-10-17T02:18:32.422Z,11.12
2017-10-17T02:21:00.506Z,10.30
2017-10-17T02:23:27.602Z,12.20
2017-10-17T02:26:00.611Z,13.20
2017-10-17T02:28:43.790Z,12.90
2017-10-17T02:31:10.866Z,11.95
2017-10-17T02:33:37.991Z,11.40
2017-10-17T02:36:04.310Z,11.00
2017-10-17T02:38:30.606Z,12.32
2017-10-17T02:40:56.954Z,10.25
2017-10-17T02:43:26.034Z,11.00
2017-10-17T02:45:52.357Z,11.82
2017-10-17T02:48:25.571Z,10.43
2017-10-17T02:50:51.874Z,11.18
2017-10-17T02:53:18.934Z,10.48
2017-10-17T02:55:45.964Z,11.73
2017-10-17T02:58:13.042Z,10.35
2017-10-17T03:00:39.375Z,9.93
2017-10-17T03:03:09.382Z,10.82
2017-10-17T03:05:36.633Z,11.07
2017-10-17T03:08:04.931Z,12.60
2017-10-17T03:10:31.267Z,12.07
2017-10-17T03:12:57.570Z,10.25
2017-10-17T03:15:24.642Z,10.65
2017-10-17T03:17:52.810Z,11.23
2017-10-17T03:20:21.946Z,11.20
2017-10-17T03:22:48.246Z,10.88
2017-10-17T03:25:16.579Z,10.23
2017-10-17T03:27:42.878Z,10.05
2017-10-17T03:30:09.983Z,10.77
2017-10-17T03:32:36.329Z,11.50
2017-10-17T03:35:04.531Z,10.70
2017-10-17T03:37:31.772Z,11.68
2017-10-17T03:40:04.834Z,11.90
2017-10-17T03:42:31.198Z,9.48
2017-10-17T03:44:57.534Z,11.05
2017-10-17T03:50:22.339Z,11.18
2017-10-17T03:52:48.690Z,11.00
2017-10-17T03:55:15.018Z,12.05
2017-10-17T03:57:47.082Z,11.90
2017-10-17T04:00:13.394Z,11.05
2017-10-17T04:02:39.682Z,11.60
2017-10-17T04:05:15.982Z,10.05
2017-10-17T04:07:43.843Z,9.93
2017-10-17T04:13:06.647Z,11.27
2017-10-17T04:15:33.722Z,10.10
2017-10-17T04:18:03.042Z,10.68
2017-10-17T04:20:35.358Z,10.15
2017-10-17T04:23:07.862Z,10.50
2017-10-17T04:25:35.082Z,10.10
2017-10-17T04:28:03.150Z,10.57
2017-10-17T04:30:43.062Z,10.10
2017-10-17T04:33:12.242Z,9.70
2017-10-17T04:35:39.471Z,11.23
2017-10-17T04:38:05.766Z,10.45
2017-10-17T04:40:32.074Z,10.82
2017-10-17T04:43:10.722Z,10.32
2017-10-17T04:45:57.939Z,10.82
2017-10-17T04:48:36.537Z,11.50
2017-10-17T04:51:22.509Z,11.10
2017-10-17T04:57:02.286Z,11.85
2017-10-17T04:59:48.682Z,12.85
2017-10-17T05:02:31.871Z,10.77
2017-10-17T05:05:01.865Z,11.52
2017-10-17T05:07:35.002Z,10.70
2017-10-17T05:10:03.295Z,12.93
2017-10-17T05:12:32.202Z,12.68
2017-10-17T05:14:58.523Z,10.77
2017-10-17T05:20:28.266Z,12.25
2017-10-17T05:23:04.343Z,12.13
2017-10-17T05:25:31.402Z,11.27
2017-10-17T05:30:48.460Z,12.93
2017-10-17T05:36:11.447Z,13.32
2017-10-17T05:38:37.766Z,11.27
2017-10-17T05:41:04.078Z,11.75
2017-10-17T05:46:22.190Z,11.93
2017-10-17T05:48:49.391Z,11.77
2017-10-17T05:51:23.630Z,13.30
2017-10-17T05:53:49.918Z,12.98
2017-10-17T05:56:16.158Z,13.73
2017-10-17T05:58:42.479Z,14.80
2017-10-17T06:01:09.104Z,15.20
2017-10-17T06:03:35.476Z,13.27
2017-10-17T06:06:01.900Z,13.93
2017-10-17T06:08:29.380Z,14.93
2017-10-17T06:10:56.511Z,15.23
2017-10-17T06:13:23.627Z,15.00
2017-10-17T06:15:50.287Z,14.13
2017-10-17T06:18:16.861Z,15.23
2017-10-17T06:20:43.308Z,13.50
2017-10-17T06:23:09.787Z,14.90
2017-10-17T06:25:36.243Z,13.23
2017-10-17T06:28:02.932Z,14.52
2017-10-17T06:30:29.376Z,23.60
2017-10-17T06:32:55.738Z,16.17
2017-10-17T06:35:22.192Z,14.10
2017-10-17T06:37:49.791Z,14.93
2017-10-17T06:40:16.307Z,13.48
2017-10-17T06:42:42.717Z,15.82
2017-10-17T06:45:09.846Z,14.25
2017-10-17T06:47:36.259Z,14.07
2017-10-17T06:50:03.016Z,16.05
2017-10-17T06:52:29.484Z,15.80
2017-10-17T06:54:55.835Z,16.12
2017-10-17T06:57:22.315Z,15.10
2017-10-17T06:59:48.700Z,15.38
2017-10-17T07:02:15.101Z,14.95
2017-10-17T07:04:41.575Z,16.98
2017-10-17T07:07:08.759Z,15.15
2017-10-17T07:09:35.639Z,13.13
2017-10-17T07:12:02.131Z,15.40
2017-10-17T07:14:28.928Z,13.90
2017-10-17T07:16:55.511Z,14.73
2017-10-17T07:19:21.977Z,14.55
2017-10-17T07:21:48.335Z,15.07
2017-10-17T07:24:14.799Z,15.05
2017-10-17T07:26:41.440Z,13.70
2017-10-17T07:29:07.871Z,14.33
2017-10-17T07:31:34.271Z,14.17
2017-10-17T07:34:00.756Z,14.47
2017-10-17T07:36:27.183Z,14.93
2017-10-17T07:38:53.624Z,14.00
2017-10-17T07:41:20.033Z,14.20
2017-10-17T07:43:46.473Z,13.90
2017-10-17T07:46:12.884Z,14.67
2017-10-17T07:48:39.751Z,13.13
2017-10-17T07:51:06.204Z,12.77
2017-10-17T07:53:32.602Z,13.10
2017-10-17T07:55:59.015Z,13.87
2017-10-17T07:58:25.692Z,12.80
2017-10-17T08:00:52.152Z,12.60
2017-10-17T08:03:18.528Z,14.00
2017-10-17T08:05:44.944Z,13.30
2017-10-17T08:08:11.950Z,15.33
2017-10-17T08:10:38.412Z,17.83
2017-10-17T08:13:04.747Z,20.87
2017-10-17T08:15:31.863Z,26.93
2017-10-17T08:17:59.392Z,26.50
2017-10-17T08:20:26.059Z,21.90
2017-10-17T08:22:52.436Z,18.97
2017-10-17T08:25:19.675Z,16.47
2017-10-17T08:27:46.148Z,14.03
2017-10-17T08:30:12.815Z,14.67
2017-10-17T08:32:39.204Z,15.60
2017-10-17T08:35:05.551Z,14.33
2017-10-17T08:37:31.940Z,14.07
2017-10-17T08:39:58.348Z,13.17
2017-10-17T08:42:24.759Z,12.87
2017-10-17T08:44:51.126Z,13.87
2017-10-17T08:47:17.576Z,15.27
2017-10-17T08:49:44.392Z,14.87
2017-10-17T08:52:10.962Z,15.77
2017-10-17T08:54:37.364Z,16.13
2017-10-17T08:57:03.727Z,16.30
2017-10-17T08:59:30.849Z,17.20
2017-10-17T09:01:57.263Z,17.20
2017-10-17T09:04:24.171Z,17.07
2017-10-17T09:06:52.724Z,17.83
2017-10-17T09:09:19.163Z,16.27
2017-10-17T09:11:46.619Z,18.37
2017-10-17T09:14:13.007Z,17.97
2017-10-17T09:16:39.395Z,17.40
2017-10-17T09:19:05.755Z,19.30
2017-10-17T09:21:32.159Z,19.60
2017-10-17T09:23:58.596Z,18.73
2017-10-17T09:26:24.971Z,19.00
2017-10-17T09:28:51.349Z,20.33
2017-10-17T09:31:18.444Z,22.40
2017-10-17T09:33:44.795Z,24.93
2017-10-17T09:36:11.171Z,23.27
2017-10-17T09:38:38.028Z,22.10
2017-10-17T09:41:04.923Z,23.00
2017-10-17T09:43:31.375Z,22.10
2017-10-17T09:45:57.818Z,27.70
2017-10-17T09:48:24.199Z,27.03
2017-10-17T09:50:51.092Z,27.57
2017-10-17T09:53:17.541Z,27.77
2017-10-17T09:58:37.215Z,25.93
2017-10-17T10:01:04.295Z,26.30
2017-10-17T10:03:30.579Z,26.03
2017-10-17T10:05:56.882Z,23.97
2017-10-17T10:08:23.926Z,23.53
2017-10-17T10:10:50.565Z,22.53
2017-10-17T10:13:16.882Z,23.43
2017-10-17T10:15:43.142Z,22.33
2017-10-17T10:18:09.423Z,21.53
2017-10-17T10:20:35.810Z,21.87
2017-10-17T10:23:03.238Z,23.17
2017-10-17T10:25:29.512Z,23.00
2017-10-17T10:27:55.791Z,24.37
2017-10-17T10:30:22.235Z,24.77
2017-10-17T10:32:48.600Z,26.07
2017-10-17T10:35:15.775Z,24.10
2017-10-17T10:37:42.152Z,22.77
2017-10-17T10:40:09.414Z,24.17
2017-10-17T10:42:35.830Z,25.23
2017-10-17T10:45:02.260Z,23.87
2017-10-17T10:47:28.663Z,25.50
2017-10-17T10:49:55.051Z,23.33
2017-10-17T10:52:21.640Z,22.70
2017-10-17T10:54:48.020Z,24.00
2017-10-17T10:57:14.422Z,20.37
2017-10-17T10:59:40.792Z,18.20
2017-10-17T11:02:07.290Z,19.37
2017-10-17T11:04:33.755Z,20.90
2017-10-17T11:07:01.391Z,19.20
2017-10-17T11:09:27.830Z,20.23
2017-10-17T11:11:54.211Z,19.80
2017-10-17T11:14:20.617Z,20.23
2017-10-17T11:16:47.000Z,21.43
2017-10-17T11:19:13.430Z,18.73
2017-10-17T11:21:40.064Z,18.03
2017-10-17T11:24:06.483Z,18.23
2017-10-17T11:26:32.887Z,19.00
2017-10-17T11:28:59.533Z,18.27
2017-10-17T11:31:27.081Z,19.23
2017-10-17T11:33:53.510Z,18.67
2017-10-17T11:36:20.731Z,18.40
2017-10-17T11:38:47.131Z,17.20
2017-10-17T11:41:25.855Z,17.37
2017-10-17T11:43:52.287Z,17.60
2017-10-17T11:46:18.675Z,18.97
2017-10-17T11:48:45.130Z,16.33
2017-10-17T11:51:11.516Z,15.37
2017-10-17T11:53:37.900Z,15.90
2017-10-17T11:56:04.412Z,15.30
2017-10-17T11:58:30.791Z,16.23
2017-10-17T12:00:57.992Z,15.07
2017-10-17T12:03:24.399Z,14.57
2017-10-17T12:05:50.811Z,14.20
2017-10-17T12:08:17.161Z,16.37
2017-10-17T12:10:43.563Z,16.20
2017-10-17T12:13:09.971Z,14.73
2017-10-17T12:15:36.384Z,16.97
2017-10-17T12:18:02.807Z,14.10
2017-10-17T12:20:30.268Z,16.40
2017-10-17T12:22:56.636Z,16.47
2017-10-17T12:25:23.058Z,16.37
2017-10-17T12:27:49.751Z,16.67
2017-10-17T12:30:17.983Z,16.63
2017-10-17T12:32:44.429Z,16.57
2017-10-17T12:35:10.867Z,15.80
2017-10-17T12:37:37.288Z,14.90
2017-10-17T12:40:03.735Z,15.03
2017-10-17T12:42:30.114Z,15.40
2017-10-17T12:44:56.452Z,17.63
2017-10-17T12:47:22.835Z,14.70
2017-10-17T12:49:49.240Z,17.37
2017-10-17T12:52:16.373Z,15.33
2017-10-17T12:54:43.491Z,14.47
2017-10-17T12:57:10.691Z,14.10
2017-10-17T12:59:37.107Z,15.40
2017-10-17T13:02:03.505Z,15.93
2017-10-17T13:04:29.994Z,16.47
2017-10-17T13:06:56.463Z,13.23
2017-10-17T13:09:22.879Z,13.77
2017-10-17T13:11:49.272Z,12.93
2017-10-17T13:14:15.655Z,13.90
2017-10-17T13:16:42.127Z,13.60
2017-10-17T13:19:08.548Z,12.50
2017-10-17T13:21:35.048Z,11.70
2017-10-17T13:24:01.496Z,13.60
2017-10-17T13:26:27.863Z,12.20
2017-10-17T13:28:54.266Z,12.20
2017-10-17T13:31:20.672Z,12.13
2017-10-17T13:33:47.043Z,12.80
2017-10-17T13:36:13.491Z,12.73
2017-10-17T13:38:39.864Z,13.80
2017-10-17T13:41:06.235Z,12.50
2017-10-17T13:43:32.626Z,12.33
2017-10-17T13:45:58.985Z,13.20
2017-10-17T13:48:25.392Z,12.97
2017-10-17T13:50:51.756Z,12.10
2017-10-17T13:53:18.164Z,12.63
2017-10-17T13:55:44.558Z,11.40
2017-10-17T13:58:10.904Z,13.33
2017-10-17T14:00:37.324Z,12.57
2017-10-17T14:03:03.723Z,13.70
2017-10-17T14:05:30.084Z,11.97
2017-10-17T14:07:56.472Z,12.70
2017-10-17T14:10:22.892Z,14.43
2017-10-17T14:12:49.347Z,12.03
2017-10-17T14:15:15.717Z,14.70
2017-10-17T14:17:42.143Z,13.30
2017-10-17T14:20:08.538Z,14.97
2017-10-17T14:22:34.892Z,13.90
2017-10-17T14:25:02.076Z,11.90
2017-10-17T14:27:28.461Z,14.27
2017-10-17T14:29:54.931Z,12.20
2017-10-17T14:32:22.371Z,13.70
2017-10-17T14:34:48.791Z,20.17
2017-10-17T14:37:15.131Z,16.53
2017-10-17T14:39:41.499Z,16.43
2017-10-17T14:42:07.876Z,14.90
2017-10-17T14:44:35.251Z,15.27
2017-10-17T14:47:01.667Z,13.90
2017-10-17T14:49:28.755Z,13.80
2017-10-17T14:51:55.128Z,14.90
2017-10-17T14:54:21.541Z,12.60
2017-10-17T14:56:47.933Z,13.43
2017-10-17T14:59:14.311Z,12.70
2017-10-17T15:01:41.455Z,16.17
2017-10-17T15:04:07.816Z,14.70
2017-10-17T15:06:34.240Z,14.40
2017-10-17T15:09:00.628Z,16.20
2017-10-17T15:11:27.755Z,16.43
2017-10-17T15:13:54.115Z,17.87
2017-10-17T15:16:20.563Z,16.00
2017-10-17T15:18:46.991Z,16.10
2017-10-17T15:21:13.363Z,16.40
2017-10-17T15:23:39.795Z,16.00
2017-10-17T15:26:06.200Z,16.30
2017-10-17T15:28:32.587Z,14.17
2017-10-17T15:30:59.028Z,14.90
2017-10-17T15:33:25.399Z,14.57
2017-10-17T15:35:51.858Z,16.03
2017-10-17T15:38:18.247Z,16.13
2017-10-17T15:40:44.644Z,15.73
2017-10-17T15:43:11.011Z,16.23
2017-10-17T15:45:37.395Z,14.43
2017-10-17T15:48:03.817Z,15.33
2017-10-17T15:50:30.933Z,14.57
2017-10-17T15:52:57.307Z,15.83
2017-10-17T15:55:23.731Z,14.87
2017-10-17T15:57:50.079Z,15.27
2017-10-17T16:00:16.459Z,13.50
2017-10-17T16:02:42.823Z,14.30
2017-10-17T16:05:09.962Z,13.73
2017-10-17T16:07:37.085Z,14.40
2017-10-17T16:10:03.543Z,14.23
2017-10-17T16:12:29.904Z,13.37
2017-10-17T16:14:56.419Z,15.07
2017-10-17T16:17:22.820Z,15.30
2017-10-17T16:19:49.219Z,13.73
2017-10-17T16:22:15.601Z,14.57
2017-10-17T16:24:42.027Z,15.00
2017-10-17T16:27:08.730Z,15.23
2017-10-17T16:29:35.617Z,15.23
2017-10-17T16:32:01.998Z,13.80
2017-10-17T16:34:28.493Z,14.67
2017-10-17T16:36:54.843Z,14.30
2017-10-17T16:39:21.223Z,15.50
2017-10-17T16:41:47.592Z,15.10
2017-10-17T16:44:14.033Z,13.73
2017-10-17T16:46:41.185Z,15.10
2017-10-17T16:49:07.588Z,15.00
2017-10-17T16:51:34.012Z,14.23
2017-10-17T16:54:01.139Z,15.97
2017-10-17T16:56:27.531Z,14.67
2017-10-17T16:58:53.972Z,16.90
2017-10-17T17:01:20.389Z,14.73
2017-10-17T17:03:46.824Z,16.20
2017-10-17T17:06:13.269Z,15.80
2017-10-17T17:08:39.669Z,15.30
2017-10-17T17:11:06.790Z,17.40
2017-10-17T17:13:33.960Z,17.40
2017-10-17T17:16:01.620Z,16.37
2017-10-17T17:18:29.811Z,17.30
2017-10-17T17:20:56.826Z,16.73
2017-10-17T17:23:25.224Z,17.43
2017-10-17T17:25:53.422Z,15.30
2017-10-17T17:28:21.145Z,16.40
2017-10-17T17:30:49.144Z,15.73
2017-10-17T17:33:17.708Z,17.13
2017-10-17T17:35:45.536Z,17.57
2017-10-17T17:38:13.549Z,16.63
2017-10-17T17:40:41.304Z,16.27
2017-10-17T17:43:09.233Z,17.37
2017-10-17T17:45:37.275Z,15.63
2017-10-17T17:48:10.198Z,16.37
2017-10-17T17:50:39.727Z,15.47
2017-10-17T17:53:07.715Z,17.00
2017-10-17T17:55:35.745Z,16.73
2017-10-17T17:58:03.726Z,16.90
2017-10-17T18:00:31.758Z,16.73
2017-10-17T18:02:59.778Z,15.20
2017-10-17T18:05:28.938Z,17.23
2017-10-17T18:07:58.155Z,15.47
2017-10-17T18:10:27.307Z,15.37
2017-10-17T18:12:55.528Z,14.97
2017-10-17T18:15:23.598Z,15.80
2017-10-17T18:17:51.582Z,16.20
2017-10-17T18:20:19.558Z,16.43
2017-10-17T18:22:47.679Z,14.50
2017-10-17T18:25:15.784Z,15.40
2017-10-17T18:27:44.574Z,16.30
2017-10-17T18:30:12.480Z,16.07
2017-10-17T18:32:40.613Z,15.10
2017-10-17T18:35:08.658Z,15.70
2017-10-17T18:37:36.810Z,14.90
2017-10-17T18:40:05.590Z,16.00
2017-10-17T18:42:34.310Z,15.80
2017-10-17T18:45:05.087Z,15.67
2017-10-17T18:47:33.026Z,14.67
2017-10-17T18:50:01.103Z,18.13
2017-10-17T18:52:30.039Z,15.00
2017-10-17T18:54:58.841Z,15.17
2017-10-17T18:57:27.862Z,13.90
2017-10-17T18:59:56.585Z,16.40
2017-10-17T19:02:26.341Z,13.77
2017-10-17T19:04:54.522Z,15.30
2017-10-17T19:07:22.460Z,14.27
2017-10-17T19:09:51.227Z,14.63
2017-10-17T19:12:19.161Z,14.43
2017-10-17T19:14:47.343Z,14.13
2017-10-17T19:17:15.254Z,14.83
2017-10-17T19:19:43.349Z,14.10
2017-10-17T19:22:11.349Z,15.63
2017-10-17T19:24:39.522Z,15.00
2017-10-17T19:27:07.441Z,13.13
2017-10-17T19:29:37.324Z,14.30
2017-10-17T19:32:05.465Z,15.00
2017-10-17T19:34:33.826Z,14.10
2017-10-17T19:37:01.742Z,12.97
2017-10-17T19:39:31.702Z,13.30
2017-10-17T19:41:59.885Z,14.77
2017-10-17T19:44:28.066Z,13.77
2017-10-17T19:46:57.093Z,13.13
2017-10-17T19:49:25.102Z,14.20
2017-10-17T19:51:53.763Z,15.17
2017-10-17T19:54:21.923Z,15.17
2017-10-17T19:56:50.588Z,15.77
2017-10-17T19:59:19.117Z,15.87
2017-10-17T20:01:49.307Z,15.47
2017-10-17T20:04:17.471Z,15.67
2017-10-17T20:06:47.113Z,15.13
2017-10-17T20:09:17.159Z,14.80
2017-10-17T20:11:45.344Z,15.30
2017-10-17T20:14:14.139Z,15.30
2017-10-17T20:16:42.216Z,16.37
2017-10-17T20:19:12.167Z,15.40
2017-10-17T20:21:40.783Z,16.00
2017-10-17T20:24:08.821Z,15.87
2017-10-17T20:26:36.860Z,17.37
2017-10-17T20:29:05.847Z,15.43
2017-10-17T20:31:34.927Z,18.10
2017-10-17T20:34:03.879Z,15.90
2017-10-17T20:36:31.892Z,14.30
2017-10-17T20:38:59.928Z,15.23
2017-10-17T20:41:27.992Z,16.20
2017-10-17T20:43:56.737Z,15.00
2017-10-17T20:46:24.802Z,13.97
2017-10-17T20:48:52.777Z,14.67
2017-10-17T20:51:20.820Z,15.47
2017-10-17T20:53:49.562Z,14.07
2017-10-17T20:56:17.412Z,13.53
2017-10-17T20:58:45.512Z,15.80
2017-10-17T21:01:13.369Z,13.50
2017-10-17T21:03:42.088Z,13.40
2017-10-17T21:06:10.132Z,14.60
2017-10-17T21:08:38.043Z,14.20
2017-10-17T21:11:05.996Z,14.63
2017-10-17T21:13:34.990Z,14.70
2017-10-17T21:16:02.963Z,15.57
2017-10-17T21:18:31.002Z,15.17
2017-10-17T21:20:58.877Z,15.10
2017-10-17T21:23:26.758Z,14.57
2017-10-17T21:25:54.667Z,14.17
2017-10-17T21:28:22.500Z,16.90
2017-10-17T21:30:51.291Z,14.37
2017-10-17T21:33:19.129Z,15.00
2017-10-17T21:35:47.054Z,14.40
2017-10-17T21:38:15.003Z,14.30
2017-10-17T21:40:42.217Z,14.77
2017-10-17T21:43:09.317Z,13.93
2017-10-17T21:45:36.291Z,14.40
2017-10-17T21:48:02.850Z,14.50
2017-10-17T21:50:29.671Z,13.87
2017-10-17T21:52:56.207Z,14.03
2017-10-17T21:55:23.299Z,14.17
2017-10-17T21:57:49.720Z,14.53
2017-10-17T22:00:17.154Z,15.10
2017-10-17T22:02:43.591Z,14.10
2017-10-17T22:05:10.752Z,14.23
2017-10-17T22:07:37.123Z,13.30
2017-10-17T22:10:03.584Z,14.80
2017-10-17T22:12:30.004Z,13.67
2017-10-17T22:14:57.135Z,14.60
2017-10-17T22:17:24.271Z,14.40
2017-10-17T22:19:50.664Z,13.27
2017-10-17T22:22:17.809Z,12.87
2017-10-17T22:24:44.207Z,13.17
2017-10-17T22:27:10.575Z,15.23
2017-10-17T22:29:37.698Z,13.43
2017-10-17T22:32:04.823Z,13.67
2017-10-17T22:34:31.227Z,13.77
2017-10-17T22:36:58.420Z,14.13
2017-10-17T22:39:24.935Z,13.77
2017-10-17T22:41:51.347Z,12.73
2017-10-17T22:44:18.733Z,12.50
2017-10-17T22:46:45.110Z,13.10
2017-10-17T22:49:11.543Z,11.97
2017-10-17T22:51:37.915Z,12.37
2017-10-17T22:54:04.295Z,12.40
2017-10-17T22:56:31.447Z,11.77
2017-10-17T22:58:58.595Z,12.60
2017-10-17T23:01:25.714Z,13.10
2017-10-17T23:03:52.135Z,12.83
2017-10-17T23:06:19.279Z,13.03
2017-10-17T23:08:45.688Z,13.37
2017-10-17T23:11:12.095Z,12.85
2017-10-17T23:13:38.451Z,12.10
2017-10-17T23:16:04.835Z,13.82
2017-10-17T23:18:43.523Z,14.33
2017-10-17T23:21:09.952Z,13.60
2017-10-17T23:23:36.368Z,13.13
2017-10-17T23:26:03.512Z,13.05
2017-10-17T23:28:29.915Z,13.97
2017-10-17T23:30:56.342Z,12.90
2017-10-17T23:33:24.530Z,12.63
2017-10-17T23:35:50.931Z,12.27
2017-10-17T23:38:17.360Z,13.23
2017-10-17T23:40:43.742Z,12.98
2017-10-17T23:43:10.839Z,14.00
2017-10-17T23:45:37.276Z,13.70
2017-10-17T23:48:04.400Z,15.07
2017-10-17T23:50:31.560Z,13.30
2017-10-17T23:52:57.943Z,14.40
2017-10-17T23:55:24.356Z,14.25
2017-10-17T23:57:50.715Z,13.48
